sensor_id;sensor_type;location;lat;lon;timestamp;pressure;altitude;pressure_sealevel;temperature
39959;BMP280;25639;53.634;9.880;2023-02-19T00:01:43;150861.31;;;-6.11
39959;BMP280;25639;53.634;9.880;2023-02-19T00:04:12;150853.72;;;-6.15
39959;BMP280;25639;53.634;9.880;2023-02-19T00:06:39;150857.53;;;-6.13
39959;BMP280;25639;53.634;9.880;2023-02-19T00:09:05;150865.03;;;-6.10
39959;BMP280;25639;53.634;9.880;2023-02-19T00:11:32;150852.50;;;-6.15
39959;BMP280;25639;53.634;9.880;2023-02-19T00:13:59;150866.34;;;-6.09
39959;BMP280;25639;53.634;9.880;2023-02-19T00:16:26;150873.88;;;-6.06
39959;BMP280;25639;53.634;9.880;2023-02-19T00:18:52;150877.66;;;-6.05
39959;BMP280;25639;53.634;9.880;2023-02-19T00:21:17;150881.44;;;-6.03
39959;BMP280;25639;53.634;9.880;2023-02-19T00:23:47;150876.41;;;-6.05
39959;BMP280;25639;53.634;9.880;2023-02-19T00:26:12;150871.38;;;-6.07
39959;BMP280;25639;53.634;9.880;2023-02-19T00:28:38;150877.66;;;-6.05
39959;BMP280;25639;53.634;9.880;2023-02-19T00:31:09;150911.63;;;-5.91
39959;BMP280;25639;53.634;9.880;2023-02-19T00:33:36;150897.81;;;-5.97
39959;BMP280;25639;53.634;9.880;2023-02-19T00:36:03;150895.28;;;-5.98
39959;BMP280;25639;53.634;9.880;2023-02-19T00:38:29;150914.16;;;-5.90
39959;BMP280;25639;53.634;9.880;2023-02-19T00:40:54;150919.22;;;-5.88
39959;BMP280;25639;53.634;9.880;2023-02-19T00:43:20;150917.91;;;-5.88
39959;BMP280;25639;53.634;9.880;2023-02-19T00:45:45;150924.25;;;-5.86
39959;BMP280;25639;53.634;9.880;2023-02-19T00:48:10;150892.78;;;-5.99
39959;BMP280;25639;53.634;9.880;2023-02-19T00:50:36;150875.16;;;-6.06
39959;BMP280;25639;53.634;9.880;2023-02-19T00:53:01;150887.75;;;-6.01
39959;BMP280;25639;53.634;9.880;2023-02-19T00:55:26;150878.94;;;-6.04
39959;BMP280;25639;53.634;9.880;2023-02-19T00:57:52;150872.63;;;-6.07
39959;BMP280;25639;53.634;9.880;2023-02-19T01:00:17;150867.59;;;-6.09
39959;BMP280;25639;53.634;9.880;2023-02-19T01:02:42;150851.19;;;-6.16
39959;BMP280;25639;53.634;9.880;2023-02-19T01:05:08;150832.31;;;-6.23
39959;BMP280;25639;53.634;9.880;2023-02-19T01:07:35;150856.22;;;-6.14
39959;BMP280;25639;53.634;9.880;2023-02-19T01:10:01;150852.50;;;-6.15
39959;BMP280;25639;53.634;9.880;2023-02-19T01:12:26;150873.88;;;-6.06
39959;BMP280;25639;53.634;9.880;2023-02-19T01:14:52;150842.38;;;-6.19
39959;BMP280;25639;53.634;9.880;2023-02-19T01:17:19;150844.91;;;-6.18
39959;BMP280;25639;53.634;9.880;2023-02-19T01:19:44;150836.09;;;-6.22
39959;BMP280;25639;53.634;9.880;2023-02-19T01:22:09;150829.78;;;-6.24
39959;BMP280;25639;53.634;9.880;2023-02-19T01:24:34;150851.19;;;-6.16
39959;BMP280;25639;53.634;9.880;2023-02-19T01:27:00;150844.91;;;-6.18
39959;BMP280;25639;53.634;9.880;2023-02-19T01:29:25;150838.59;;;-6.21
39959;BMP280;25639;53.634;9.880;2023-02-19T01:31:50;150836.09;;;-6.22
39959;BMP280;25639;53.634;9.880;2023-02-19T01:34:15;150813.44;;;-6.31
39959;BMP280;25639;53.634;9.880;2023-02-19T01:36:41;150807.13;;;-6.34
39959;BMP280;25639;53.634;9.880;2023-02-19T01:39:06;150838.59;;;-6.21
39959;BMP280;25639;53.634;9.880;2023-02-19T01:41:35;150856.22;;;-6.14
39959;BMP280;25639;53.634;9.880;2023-02-19T01:44:06;150829.78;;;-6.24
39959;BMP280;25639;53.634;9.880;2023-02-19T01:46:37;150829.78;;;-6.24
39959;BMP280;25639;53.634;9.880;2023-02-19T01:49:09;150829.78;;;-6.24
39959;BMP280;25639;53.634;9.880;2023-02-19T01:51:40;150837.34;;;-6.21
39959;BMP280;25639;53.634;9.880;2023-02-19T01:54:10;150861.31;;;-6.11
39959;BMP280;25639;53.634;9.880;2023-02-19T01:56:38;150849.94;;;-6.16
39959;BMP280;25639;53.634;9.880;2023-02-19T01:59:06;150822.25;;;-6.27
39959;BMP280;25639;53.634;9.880;2023-02-19T02:01:32;150824.75;;;-6.26
39959;BMP280;25639;53.634;9.880;2023-02-19T02:03:57;150817.22;;;-6.29
39959;BMP280;25639;53.634;9.880;2023-02-19T02:06:27;150822.25;;;-6.27
39959;BMP280;25639;53.634;9.880;2023-02-19T02:08:56;150822.25;;;-6.27
39959;BMP280;25639;53.634;9.880;2023-02-19T02:11:44;150834.84;;;-6.22
39959;BMP280;25639;53.634;9.880;2023-02-19T02:14:11;150812.13;;;-6.32
39959;BMP280;25639;53.634;9.880;2023-02-19T02:16:47;150834.84;;;-6.22
39959;BMP280;25639;53.634;9.880;2023-02-19T02:19:30;150804.63;;;-6.35
39959;BMP280;25639;53.634;9.880;2023-02-19T02:38:12;150766.81;;;-6.50
39959;BMP280;25639;53.634;9.880;2023-02-19T02:40:42;150793.25;;;-6.39
39959;BMP280;25639;53.634;9.880;2023-02-19T02:43:08;150776.88;;;-6.46
39959;BMP280;25639;53.634;9.880;2023-02-19T02:45:33;150779.41;;;-6.45
39959;BMP280;25639;53.634;9.880;2023-02-19T02:48:00;150739.13;;;-6.61
39959;BMP280;25639;53.634;9.880;2023-02-19T02:50:33;150732.81;;;-6.64
39959;BMP280;25639;53.634;9.880;2023-02-19T02:53:02;150726.53;;;-6.66
39959;BMP280;25639;53.634;9.880;2023-02-19T02:55:51;150736.59;;;-6.62
39959;BMP280;25639;53.634;9.880;2023-02-19T02:58:19;150735.34;;;-6.63
39959;BMP280;25639;53.634;9.880;2023-02-19T03:00:53;150729.03;;;-6.65
39959;BMP280;25639;53.634;9.880;2023-02-19T03:03:38;150736.59;;;-6.62
39959;BMP280;25639;53.634;9.880;2023-02-19T03:06:07;150736.59;;;-6.62
39959;BMP280;25639;53.634;9.880;2023-02-19T03:08:39;150744.16;;;-6.59
39959;BMP280;25639;53.634;9.880;2023-02-19T03:11:08;150739.13;;;-6.61
39959;BMP280;25639;53.634;9.880;2023-02-19T03:13:58;150742.91;;;-6.60
39959;BMP280;25639;53.634;9.880;2023-02-19T03:16:47;150739.13;;;-6.61
39959;BMP280;25639;53.634;9.880;2023-02-19T03:19:35;150730.31;;;-6.65
39959;BMP280;25639;53.634;9.880;2023-02-19T03:22:14;150736.59;;;-6.62
39959;BMP280;25639;53.634;9.880;2023-02-19T03:24:48;150720.22;;;-6.69
39959;BMP280;25639;53.634;9.880;2023-02-19T03:27:34;150710.16;;;-6.73
39959;BMP280;25639;53.634;9.880;2023-02-19T03:30:06;150720.22;;;-6.69
39959;BMP280;25639;53.634;9.880;2023-02-19T03:32:37;150715.19;;;-6.71
39959;BMP280;25639;53.634;9.880;2023-02-19T03:35:12;150706.38;;;-6.75
39959;BMP280;25639;53.634;9.880;2023-02-19T03:40:33;150718.97;;;-6.69
39959;BMP280;25639;53.634;9.880;2023-02-19T03:43:14;150726.53;;;-6.66
39959;BMP280;25639;53.634;9.880;2023-02-19T03:45:47;150718.97;;;-6.69
39959;BMP280;25639;53.634;9.880;2023-02-19T03:48:26;150711.41;;;-6.73
39959;BMP280;25639;53.634;9.880;2023-02-19T03:53:46;150701.34;;;-6.77
39959;BMP280;25639;53.634;9.880;2023-02-19T03:58:57;150673.66;;;-6.88
39959;BMP280;25639;53.634;9.880;2023-02-19T04:04:29;150698.84;;;-6.78
39959;BMP280;25639;53.634;9.880;2023-02-19T04:06:57;150687.50;;;-6.82
39959;BMP280;25639;53.634;9.880;2023-02-19T04:09:26;150690.03;;;-6.81
39959;BMP280;25639;53.634;9.880;2023-02-19T04:11:53;150672.38;;;-6.88
39959;BMP280;25639;53.634;9.880;2023-02-19T04:14:27;150651.00;;;-6.97
39959;BMP280;25639;53.634;9.880;2023-02-19T04:17:00;150651.00;;;-6.97
39959;BMP280;25639;53.634;9.880;2023-02-19T04:19:28;150647.22;;;-6.99
39959;BMP280;25639;53.634;9.880;2023-02-19T04:21:55;150625.81;;;-7.07
39959;BMP280;25639;53.634;9.880;2023-02-19T04:24:31;150619.50;;;-7.10
39959;BMP280;25639;53.634;9.880;2023-02-19T04:26:58;150619.50;;;-7.10
39959;BMP280;25639;53.634;9.880;2023-02-19T04:29:23;150608.19;;;-7.15
39959;BMP280;25639;53.634;9.880;2023-02-19T04:31:49;150591.81;;;-7.21
39959;BMP280;25639;53.634;9.880;2023-02-19T04:34:14;150585.53;;;-7.24
39959;BMP280;25639;53.634;9.880;2023-02-19T04:36:39;150584.25;;;-7.24
39959;BMP280;25639;53.634;9.880;2023-02-19T04:39:05;150586.78;;;-7.23
39959;BMP280;25639;53.634;9.880;2023-02-19T04:41:32;150576.72;;;-7.28
39959;BMP280;25639;53.634;9.880;2023-02-19T04:43:57;150564.13;;;-7.33
39959;BMP280;25639;53.634;9.880;2023-02-19T04:46:22;150556.59;;;-7.36
39959;BMP280;25639;53.634;9.880;2023-02-19T04:48:48;150540.22;;;-7.42
39959;BMP280;25639;53.634;9.880;2023-02-19T04:51:13;150541.50;;;-7.42
39959;BMP280;25639;53.634;9.880;2023-02-19T04:53:38;150542.75;;;-7.41
39959;BMP280;25639;53.634;9.880;2023-02-19T04:56:16;150554.03;;;-7.37
39959;BMP280;25639;53.634;9.880;2023-02-19T04:58:43;150554.03;;;-7.37
39959;BMP280;25639;53.634;9.880;2023-02-19T05:01:09;150546.53;;;-7.40
39959;BMP280;25639;53.634;9.880;2023-02-19T05:03:35;150544.00;;;-7.41
39959;BMP280;25639;53.634;9.880;2023-02-19T05:06:02;150536.41;;;-7.44
39959;BMP280;25639;53.634;9.880;2023-02-19T05:08:28;150525.13;;;-7.49
39959;BMP280;25639;53.634;9.880;2023-02-19T05:10:56;150546.53;;;-7.40
39959;BMP280;25639;53.634;9.880;2023-02-19T05:13:22;150520.09;;;-7.51
39959;BMP280;25639;53.634;9.880;2023-02-19T05:15:58;150513.78;;;-7.53
39959;BMP280;25639;53.634;9.880;2023-02-19T05:18:24;150507.50;;;-7.56
39959;BMP280;25639;53.634;9.880;2023-02-19T05:20:50;150489.91;;;-7.63
39959;BMP280;25639;53.634;9.880;2023-02-19T05:23:16;150478.56;;;-7.68
39959;BMP280;25639;53.634;9.880;2023-02-19T05:25:41;150483.59;;;-7.66
39959;BMP280;25639;53.634;9.880;2023-02-19T05:28:06;150484.88;;;-7.65
39959;BMP280;25639;53.634;9.880;2023-02-19T05:30:42;150467.25;;;-7.72
39959;BMP280;25639;53.634;9.880;2023-02-19T05:33:07;150460.94;;;-7.75
39959;BMP280;25639;53.634;9.880;2023-02-19T05:35:33;150452.13;;;-7.78
39959;BMP280;25639;53.634;9.880;2023-02-19T05:37:58;150435.81;;;-7.85
39959;BMP280;25639;53.634;9.880;2023-02-19T05:40:23;150434.53;;;-7.86
39959;BMP280;25639;53.634;9.880;2023-02-19T05:42:48;150425.72;;;-7.89
39959;BMP280;25639;53.634;9.880;2023-02-19T05:45:14;150406.88;;;-7.97
39959;BMP280;25639;53.634;9.880;2023-02-19T05:47:39;150411.91;;;-7.95
39959;BMP280;25639;53.634;9.880;2023-02-19T05:50:04;150414.44;;;-7.94
39959;BMP280;25639;53.634;9.880;2023-02-19T05:52:30;150406.88;;;-7.97
39959;BMP280;25639;53.634;9.880;2023-02-19T05:54:55;150405.63;;;-7.97
39959;BMP280;25639;53.634;9.880;2023-02-19T05:57:20;150399.31;;;-8.00
39959;BMP280;25639;53.634;9.880;2023-02-19T05:59:46;150380.47;;;-8.08
39959;BMP280;25639;53.634;9.880;2023-02-19T06:02:11;150379.22;;;-8.08
39959;BMP280;25639;53.634;9.880;2023-02-19T06:04:36;150377.91;;;-8.09
39959;BMP280;25639;53.634;9.880;2023-02-19T06:07:01;150361.59;;;-8.15
39959;BMP280;25639;53.634;9.880;2023-02-19T06:09:27;150361.59;;;-8.15
39959;BMP280;25639;53.634;9.880;2023-02-19T06:11:52;150354.03;;;-8.18
39959;BMP280;25639;53.634;9.880;2023-02-19T06:14:17;150344.00;;;-8.22
39959;BMP280;25639;53.634;9.880;2023-02-19T06:16:42;150349.03;;;-8.20
39959;BMP280;25639;53.634;9.880;2023-02-19T06:19:08;150344.00;;;-8.22
39959;BMP280;25639;53.634;9.880;2023-02-19T06:21:33;150342.72;;;-8.23
39959;BMP280;25639;53.634;9.880;2023-02-19T06:24:04;150346.50;;;-8.21
39959;BMP280;25639;53.634;9.880;2023-02-19T06:26:30;150346.50;;;-8.21
39959;BMP280;25639;53.634;9.880;2023-02-19T06:28:55;150344.00;;;-8.22
39959;BMP280;25639;53.634;9.880;2023-02-19T06:31:21;150341.47;;;-8.24
39959;BMP280;25639;53.634;9.880;2023-02-19T06:33:46;150331.41;;;-8.28
39959;BMP280;25639;53.634;9.880;2023-02-19T06:36:14;150340.22;;;-8.24
39959;BMP280;25639;53.634;9.880;2023-02-19T06:38:40;150338.94;;;-8.25
39959;BMP280;25639;53.634;9.880;2023-02-19T06:41:06;150337.69;;;-8.25
39959;BMP280;25639;53.634;9.880;2023-02-19T06:43:33;150357.81;;;-8.17
39959;BMP280;25639;53.634;9.880;2023-02-19T06:46:04;150344.00;;;-8.22
39959;BMP280;25639;53.634;9.880;2023-02-19T06:48:31;150347.72;;;-8.21
39959;BMP280;25639;53.634;9.880;2023-02-19T06:50:57;150359.06;;;-8.16
39959;BMP280;25639;53.634;9.880;2023-02-19T06:53:22;150350.25;;;-8.20
39959;BMP280;25639;53.634;9.880;2023-02-19T06:58:46;150341.47;;;-8.24
39959;BMP280;25639;53.634;9.880;2023-02-19T07:01:11;150355.28;;;-8.18
39959;BMP280;25639;53.634;9.880;2023-02-19T07:03:36;150357.81;;;-8.17
39959;BMP280;25639;53.634;9.880;2023-02-19T07:06:02;150360.31;;;-8.16
39959;BMP280;25639;53.634;9.880;2023-02-19T07:08:27;150356.53;;;-8.17
39959;BMP280;25639;53.634;9.880;2023-02-19T07:10:56;150371.66;;;-8.11
39959;BMP280;25639;53.634;9.880;2023-02-19T07:13:23;150380.47;;;-8.08
39959;BMP280;25639;53.634;9.880;2023-02-19T07:15:48;150370.41;;;-8.12
39959;BMP280;25639;53.634;9.880;2023-02-19T07:18:13;150390.50;;;-8.03
39959;BMP280;25639;53.634;9.880;2023-02-19T07:20:39;150377.91;;;-8.09
39959;BMP280;25639;53.634;9.880;2023-02-19T07:23:04;150385.47;;;-8.06
39959;BMP280;25639;53.634;9.880;2023-02-19T07:25:30;150408.13;;;-7.96
39959;BMP280;25639;53.634;9.880;2023-02-19T07:27:55;150425.72;;;-7.89
39959;BMP280;25639;53.634;9.880;2023-02-19T07:30:20;150449.66;;;-7.79
39959;BMP280;25639;53.634;9.880;2023-02-19T07:32:46;150471.03;;;-7.71
39959;BMP280;25639;53.634;9.880;2023-02-19T07:35:11;150489.91;;;-7.63
39959;BMP280;25639;53.634;9.880;2023-02-19T07:37:36;150510.00;;;-7.55
39959;BMP280;25639;53.634;9.880;2023-02-19T07:40:02;150527.63;;;-7.48
39959;BMP280;25639;53.634;9.880;2023-02-19T07:42:27;150530.16;;;-7.47
39959;BMP280;25639;53.634;9.880;2023-02-19T07:44:52;150540.22;;;-7.42
39959;BMP280;25639;53.634;9.880;2023-02-19T07:47:17;150552.78;;;-7.37
39959;BMP280;25639;53.634;9.880;2023-02-19T07:49:43;150564.13;;;-7.33
39959;BMP280;25639;53.634;9.880;2023-02-19T07:52:08;150540.22;;;-7.42
39959;BMP280;25639;53.634;9.880;2023-02-19T07:54:33;150517.56;;;-7.52
39959;BMP280;25639;53.634;9.880;2023-02-19T07:56:58;150511.28;;;-7.54
39959;BMP280;25639;53.634;9.880;2023-02-19T07:59:24;150484.88;;;-7.65
39959;BMP280;25639;53.634;9.880;2023-02-19T08:01:49;150479.84;;;-7.67
39959;BMP280;25639;53.634;9.880;2023-02-19T08:04:33;150497.47;;;-7.60
39959;BMP280;25639;53.634;9.880;2023-02-19T08:06:58;150603.16;;;-7.17
39959;BMP280;25639;53.634;9.880;2023-02-19T08:09:23;150656.03;;;-6.95
39959;BMP280;25639;53.634;9.880;2023-02-19T08:11:49;150693.78;;;-6.80
39959;BMP280;25639;53.634;9.880;2023-02-19T08:14:33;150737.84;;;-6.62
39959;BMP280;25639;53.634;9.880;2023-02-19T08:16:58;150815.94;;;-6.30
39959;BMP280;25639;53.634;9.880;2023-02-19T08:19:24;150765.56;;;-6.50
39959;BMP280;25639;53.634;9.880;2023-02-19T08:21:49;150858.78;;;-6.13
39959;BMP280;25639;53.634;9.880;2023-02-19T08:24:15;150895.28;;;-5.98
39959;BMP280;25639;53.634;9.880;2023-02-19T08:26:40;150868.84;;;-6.08
39959;BMP280;25639;53.634;9.880;2023-02-19T08:29:06;150885.22;;;-6.02
39959;BMP280;25639;53.634;9.880;2023-02-19T08:31:32;150894.03;;;-5.98
39959;BMP280;25639;53.634;9.880;2023-02-19T08:33:57;150926.72;;;-5.85
39959;BMP280;25639;53.634;9.880;2023-02-19T08:36:23;150944.41;;;-5.78
39959;BMP280;25639;53.634;9.880;2023-02-19T08:38:48;151021.28;;;-5.46
39959;BMP280;25639;53.634;9.880;2023-02-19T08:41:14;150980.94;;;-5.63
39959;BMP280;25639;53.634;9.880;2023-02-19T08:43:40;151009.91;;;-5.51
39959;BMP280;25639;53.634;9.880;2023-02-19T08:46:06;150991.00;;;-5.59
39959;BMP280;25639;53.634;9.880;2023-02-19T08:48:32;151001.09;;;-5.55
39959;BMP280;25639;53.634;9.880;2023-02-19T08:51:00;151096.91;;;-5.15
39959;BMP280;25639;53.634;9.880;2023-02-19T08:53:28;151064.13;;;-5.29
39959;BMP280;25639;53.634;9.880;2023-02-19T08:55:53;151125.91;;;-5.04
39959;BMP280;25639;53.634;9.880;2023-02-19T08:58:19;151115.84;;;-5.08
39959;BMP280;25639;53.634;9.880;2023-02-19T09:00:44;151186.44;;;-4.79
39959;BMP280;25639;53.634;9.880;2023-02-19T09:03:09;151226.78;;;-4.63
39959;BMP280;25639;53.634;9.880;2023-02-19T09:05:34;151212.94;;;-4.68
39959;BMP280;25639;53.634;9.880;2023-02-19T09:08:00;151257.06;;;-4.50
39959;BMP280;25639;53.634;9.880;2023-02-19T09:10:25;151281.03;;;-4.41
39959;BMP280;25639;53.634;9.880;2023-02-19T09:12:50;151289.84;;;-4.37
39959;BMP280;25639;53.634;9.880;2023-02-19T09:15:15;151335.31;;;-4.18
39959;BMP280;25639;53.634;9.880;2023-02-19T09:17:42;151381.97;;;-3.99
39959;BMP280;25639;53.634;9.880;2023-02-19T09:20:07;151361.78;;;-4.08
39959;BMP280;25639;53.634;9.880;2023-02-19T09:22:33;151379.47;;;-4.00
39959;BMP280;25639;53.634;9.880;2023-02-19T09:24:59;151389.53;;;-3.96
39959;BMP280;25639;53.634;9.880;2023-02-19T09:27:24;151438.75;;;-3.76
39959;BMP280;25639;53.634;9.880;2023-02-19T09:29:49;151455.16;;;-3.70
39959;BMP280;25639;53.634;9.880;2023-02-19T09:32:14;151469.06;;;-3.64
39959;BMP280;25639;53.634;9.880;2023-02-19T09:34:40;151453.88;;;-3.70
39959;BMP280;25639;53.634;9.880;2023-02-19T09:37:06;151451.38;;;-3.71
39959;BMP280;25639;53.634;9.880;2023-02-19T09:39:31;151446.34;;;-3.73
39959;BMP280;25639;53.634;9.880;2023-02-19T09:42:00;151457.66;;;-3.69
39959;BMP280;25639;53.634;9.880;2023-02-19T09:44:37;151489.25;;;-3.56
39959;BMP280;25639;53.634;9.880;2023-02-19T09:47:07;151440.00;;;-3.76
39959;BMP280;25639;53.634;9.880;2023-02-19T09:49:38;151436.22;;;-3.77
39959;BMP280;25639;53.634;9.880;2023-02-19T09:54:40;151447.59;;;-3.73
39959;BMP280;25639;53.634;9.880;2023-02-19T09:57:12;151487.97;;;-3.56
39959;BMP280;25639;53.634;9.880;2023-02-19T09:59:47;151436.22;;;-3.77
39959;BMP280;25639;53.634;9.880;2023-02-19T10:02:20;151447.59;;;-3.73
39959;BMP280;25639;53.634;9.880;2023-02-19T10:04:47;151393.34;;;-3.95
39959;BMP280;25639;53.634;9.880;2023-02-19T10:07:14;151355.47;;;-4.10
39959;BMP280;25639;53.634;9.880;2023-02-19T10:09:40;151359.25;;;-4.09
39959;BMP280;25639;53.634;9.880;2023-02-19T10:12:18;151384.50;;;-3.98
39959;BMP280;25639;53.634;9.880;2023-02-19T10:14:50;151330.22;;;-4.21
39959;BMP280;25639;53.634;9.880;2023-02-19T10:17:26;151373.13;;;-4.03
39959;BMP280;25639;53.634;9.880;2023-02-19T10:19:54;151394.59;;;-3.94
39959;BMP280;25639;53.634;9.880;2023-02-19T10:22:20;151385.75;;;-3.98
39959;BMP280;25639;53.634;9.880;2023-02-19T10:24:49;151404.66;;;-3.90
39959;BMP280;25639;53.634;9.880;2023-02-19T10:27:16;151376.91;;;-4.02
39959;BMP280;25639;53.634;9.880;2023-02-19T10:29:43;151325.19;;;-4.23
39959;BMP280;25639;53.634;9.880;2023-02-19T10:32:14;151365.53;;;-4.06
39959;BMP280;25639;53.634;9.880;2023-02-19T10:34:42;151355.47;;;-4.10
39959;BMP280;25639;53.634;9.880;2023-02-19T10:37:12;151405.97;;;-3.90
39959;BMP280;25639;53.634;9.880;2023-02-19T10:39:46;151432.47;;;-3.79
39959;BMP280;25639;53.634;9.880;2023-02-19T10:42:21;151484.19;;;-3.58
39959;BMP280;25639;53.634;9.880;2023-02-19T10:44:57;151476.63;;;-3.61
39959;BMP280;25639;53.634;9.880;2023-02-19T10:47:27;151392.03;;;-3.95
39959;BMP280;25639;53.634;9.880;2023-02-19T10:49:56;151375.66;;;-4.02
39959;BMP280;25639;53.634;9.880;2023-02-19T10:52:30;151400.88;;;-3.92
39959;BMP280;25639;53.634;9.880;2023-02-19T10:55:26;151378.16;;;-4.01
39959;BMP280;25639;53.634;9.880;2023-02-19T10:57:53;151330.22;;;-4.21
39959;BMP280;25639;53.634;9.880;2023-02-19T11:00:30;151278.53;;;-4.42
39959;BMP280;25639;53.634;9.880;2023-02-19T11:03:19;151315.09;;;-4.27
39959;BMP280;25639;53.634;9.880;2023-02-19T11:06:00;151358.00;;;-4.09
39959;BMP280;25639;53.634;9.880;2023-02-19T11:08:26;151352.97;;;-4.11
39959;BMP280;25639;53.634;9.880;2023-02-19T11:10:51;151366.84;;;-4.06
39959;BMP280;25639;53.634;9.880;2023-02-19T11:13:29;151393.34;;;-3.95
39959;BMP280;25639;53.634;9.880;2023-02-19T11:15:57;151437.50;;;-3.77
39959;BMP280;25639;53.634;9.880;2023-02-19T11:18:32;151390.78;;;-3.96
39959;BMP280;25639;53.634;9.880;2023-02-19T11:21:05;151413.50;;;-3.87
39959;BMP280;25639;53.634;9.880;2023-02-19T11:23:36;151470.31;;;-3.64
39959;BMP280;25639;53.634;9.880;2023-02-19T11:26:05;151496.81;;;-3.53
39959;BMP280;25639;53.634;9.880;2023-02-19T11:28:39;151447.59;;;-3.73
39959;BMP280;25639;53.634;9.880;2023-02-19T11:31:23;151388.28;;;-3.97
39959;BMP280;25639;53.634;9.880;2023-02-19T11:33:56;151370.63;;;-4.04
39959;BMP280;25639;53.634;9.880;2023-02-19T11:36:35;151354.22;;;-4.11
39959;BMP280;25639;53.634;9.880;2023-02-19T11:39:15;151337.78;;;-4.17
39959;BMP280;25639;53.634;9.880;2023-02-19T11:44:24;151431.16;;;-3.79
39959;BMP280;25639;53.634;9.880;2023-02-19T11:50:02;151518.28;;;-3.44
39959;BMP280;25639;53.634;9.880;2023-02-19T12:00:40;151592.78;;;-3.14
39959;BMP280;25639;53.634;9.880;2023-02-19T12:03:41;151528.34;;;-3.40
39959;BMP280;25639;53.634;9.880;2023-02-19T12:08:55;151510.69;;;-3.47
39959;BMP280;25639;53.634;9.880;2023-02-19T12:11:57;151538.50;;;-3.36
39959;BMP280;25639;53.634;9.880;2023-02-19T12:14:54;151563.72;;;-3.26
39959;BMP280;25639;53.634;9.880;2023-02-19T12:25:43;151475.34;;;-3.61
39959;BMP280;25639;53.634;9.880;2023-02-19T12:28:27;151503.16;;;-3.50
39959;BMP280;25639;53.634;9.880;2023-02-19T12:40:07;151595.31;;;-3.13
39959;BMP280;25639;53.634;9.880;2023-02-19T12:45:27;151688.75;;;-2.75
39959;BMP280;25639;53.634;9.880;2023-02-19T12:50:26;151730.44;;;-2.58
39959;BMP280;25639;53.634;9.880;2023-02-19T12:52:57;151652.16;;;-2.90
39959;BMP280;25639;53.634;9.880;2023-02-19T12:55:28;151669.84;;;-2.82
39959;BMP280;25639;53.634;9.880;2023-02-19T12:57:54;151662.25;;;-2.85
39959;BMP280;25639;53.634;9.880;2023-02-19T13:00:36;151630.69;;;-2.98
39959;BMP280;25639;53.634;9.880;2023-02-19T13:03:10;151613.00;;;-3.05
39959;BMP280;25639;53.634;9.880;2023-02-19T13:08:34;151618.03;;;-3.03
39959;BMP280;25639;53.634;9.880;2023-02-19T13:11:23;151605.41;;;-3.09
39959;BMP280;25639;53.634;9.880;2023-02-19T13:13:55;151633.19;;;-2.97
39959;BMP280;25639;53.634;9.880;2023-02-19T13:16:24;151629.38;;;-2.99
39959;BMP280;25639;53.634;9.880;2023-02-19T13:18:55;151643.31;;;-2.93
39959;BMP280;25639;53.634;9.880;2023-02-19T13:21:29;151690.00;;;-2.74
39959;BMP280;25639;53.634;9.880;2023-02-19T13:24:27;151700.09;;;-2.70
39959;BMP280;25639;53.634;9.880;2023-02-19T13:27:30;151714.03;;;-2.64
39959;BMP280;25639;53.634;9.880;2023-02-19T13:30:26;151763.31;;;-2.44
39959;BMP280;25639;53.634;9.880;2023-02-19T13:33:20;151750.66;;;-2.50
39959;BMP280;25639;53.634;9.880;2023-02-19T13:38:42;151719.09;;;-2.62
39959;BMP280;25639;53.634;9.880;2023-02-19T13:41:41;151755.72;;;-2.47
39959;BMP280;25639;53.634;9.880;2023-02-19T13:44:19;151777.19;;;-2.39
39959;BMP280;25639;53.634;9.880;2023-02-19T13:46:46;151722.88;;;-2.61
39959;BMP280;25639;53.634;9.880;2023-02-19T13:51:49;151679.91;;;-2.78
39959;BMP280;25639;53.634;9.880;2023-02-19T13:54:24;151707.69;;;-2.67
39959;BMP280;25639;53.634;9.880;2023-02-19T13:59:52;151636.97;;;-2.96
39959;BMP280;25639;53.634;9.880;2023-02-19T14:05:12;151597.81;;;-3.12
39959;BMP280;25639;53.634;9.880;2023-02-19T14:07:54;151556.16;;;-3.29
39959;BMP280;25639;53.634;9.880;2023-02-19T14:13:07;151576.34;;;-3.20
39959;BMP280;25639;53.634;9.880;2023-02-19T14:18:01;151506.94;;;-3.49
39959;BMP280;25639;53.634;9.880;2023-02-19T14:20:42;151530.91;;;-3.39
39959;BMP280;25639;53.634;9.880;2023-02-19T14:23:24;151495.56;;;-3.53
39959;BMP280;25639;53.634;9.880;2023-02-19T14:25:56;151494.31;;;-3.54
39959;BMP280;25639;53.634;9.880;2023-02-19T14:28:27;151494.31;;;-3.54
39959;BMP280;25639;53.634;9.880;2023-02-19T14:30:58;151475.34;;;-3.61
39959;BMP280;25639;53.634;9.880;2023-02-19T14:33:29;151524.63;;;-3.41
39959;BMP280;25639;53.634;9.880;2023-02-19T14:36:00;151525.88;;;-3.41
39959;BMP280;25639;53.634;9.880;2023-02-19T14:38:32;151496.81;;;-3.53
39959;BMP280;25639;53.634;9.880;2023-02-19T14:40:59;151509.44;;;-3.48
39959;BMP280;25639;53.634;9.880;2023-02-19T14:43:25;151477.88;;;-3.60
39959;BMP280;25639;53.634;9.880;2023-02-19T14:46:02;151508.19;;;-3.48
39959;BMP280;25639;53.634;9.880;2023-02-19T14:48:37;151469.06;;;-3.64
39959;BMP280;25639;53.634;9.880;2023-02-19T14:51:10;151480.44;;;-3.59
39959;BMP280;25639;53.634;9.880;2023-02-19T14:53:38;151436.22;;;-3.77
39959;BMP280;25639;53.634;9.880;2023-02-19T14:56:06;151408.47;;;-3.89
39959;BMP280;25639;53.634;9.880;2023-02-19T14:58:41;151387.00;;;-3.97
39959;BMP280;25639;53.634;9.880;2023-02-19T15:01:24;151375.66;;;-4.02
39959;BMP280;25639;53.634;9.880;2023-02-19T15:03:53;151407.22;;;-3.89
39959;BMP280;25639;53.634;9.880;2023-02-19T15:06:18;151358.00;;;-4.09
39959;BMP280;25639;53.634;9.880;2023-02-19T15:08:47;151389.53;;;-3.96
39959;BMP280;25639;53.634;9.880;2023-02-19T15:11:18;151341.59;;;-4.16
39959;BMP280;25639;53.634;9.880;2023-02-19T15:13:49;151297.44;;;-4.34
39959;BMP280;25639;53.634;9.880;2023-02-19T15:16:20;151335.31;;;-4.18
39959;BMP280;25639;53.634;9.880;2023-02-19T15:18:47;151293.63;;;-4.35
39959;BMP280;25639;53.634;9.880;2023-02-19T15:21:24;151302.47;;;-4.32
39959;BMP280;25639;53.634;9.880;2023-02-19T15:23:55;151260.88;;;-4.49
39959;BMP280;25639;53.634;9.880;2023-02-19T15:26:25;151289.84;;;-4.37
39959;BMP280;25639;53.634;9.880;2023-02-19T15:29:00;151286.06;;;-4.38
39959;BMP280;25639;53.634;9.880;2023-02-19T15:31:26;151262.13;;;-4.48
39959;BMP280;25639;53.634;9.880;2023-02-19T15:33:52;151278.53;;;-4.42
39959;BMP280;25639;53.634;9.880;2023-02-19T15:36:23;151288.59;;;-4.37
39959;BMP280;25639;53.634;9.880;2023-02-19T15:39:18;151297.44;;;-4.34
39959;BMP280;25639;53.634;9.880;2023-02-19T15:41:50;151288.59;;;-4.37
39959;BMP280;25639;53.634;9.880;2023-02-19T15:44:34;151268.41;;;-4.46